createdAt,value
2023-05-09T00:00:03.840Z,5.6330
2023-05-09T00:01:06.902Z,4.4262
2023-05-09T00:02:09.882Z,2.9867
2023-05-09T00:03:12.982Z,2.8172
2023-05-09T00:04:16.004Z,3.6132
2023-05-09T00:05:19.007Z,3.0444
2023-05-09T00:06:21.972Z,3.7345
2023-05-09T00:07:24.961Z,3.6211
2023-05-09T00:08:27.967Z,3.0472
2023-05-09T00:09:30.971Z,2.6423
2023-05-09T00:10:33.985Z,2.9877
2023-05-09T00:11:37.052Z,2.9260
2023-05-09T00:12:40.088Z,2.2992
2023-05-09T00:13:43.061Z,3.1027
2023-05-09T00:14:46.059Z,2.1835
2023-05-09T00:15:49.030Z,2.8733
2023-05-09T00:16:52.125Z,2.4141
2023-05-09T00:17:55.119Z,2.8134
2023-05-09T00:18:58.130Z,2.0115
2023-05-09T00:20:01.112Z,2.7003
2023-05-09T00:21:04.108Z,2.9880
2023-05-09T00:22:07.163Z,2.7578
2023-05-09T00:23:10.129Z,2.3544
2023-05-09T00:24:13.122Z,2.2999
2023-05-09T00:25:16.332Z,2.3568
2023-05-09T00:26:19.463Z,2.8562
2023-05-09T00:27:22.472Z,3.2182
2023-05-09T00:28:25.450Z,2.4716
2023-05-09T00:29:28.437Z,2.0691
2023-05-09T00:30:31.407Z,1.6094
2023-05-09T00:31:34.421Z,0.1724
2023-05-09T00:32:37.400Z,0.0000
2023-05-09T00:33:40.424Z,0.0000
2023-05-09T00:34:43.443Z,0.4023
2023-05-09T00:35:46.369Z,1.3794
2023-05-09T00:36:49.383Z,1.0350
2023-05-09T00:37:52.340Z,0.7473
2023-05-09T00:38:55.294Z,1.4944
2023-05-09T00:39:58.274Z,0.0575
2023-05-09T00:41:01.253Z,0.0000
2023-05-09T00:42:04.226Z,0.0575
2023-05-09T00:43:07.219Z,0.0000
2023-05-09T00:44:10.190Z,0.0000
2023-05-09T00:45:13.316Z,0.2874
2023-05-09T00:46:16.532Z,0.3433
2023-05-09T00:47:19.601Z,0.0000
2023-05-09T00:48:22.583Z,0.6323
2023-05-09T00:49:25.575Z,0.8046
2023-05-09T00:50:28.583Z,2.6438
2023-05-09T00:51:31.525Z,1.5523
2023-05-09T00:52:34.558Z,1.3216
2023-05-09T00:53:37.537Z,1.1489
2023-05-09T00:54:40.550Z,0.2299
2023-05-09T00:55:43.617Z,0.0574
2023-05-09T00:56:46.564Z,0.8618
2023-05-09T00:57:49.531Z,0.0000
2023-05-09T00:58:52.521Z,0.0000
2023-05-09T00:59:55.516Z,0.4024
2023-05-09T01:00:58.837Z,0.8047
2023-05-09T01:02:01.837Z,0.9715
2023-05-09T01:03:04.920Z,0.0000
2023-05-09T01:04:07.938Z,0.0574
2023-05-09T01:05:10.965Z,1.9536
2023-05-09T01:06:13.965Z,0.8621
2023-05-09T01:07:16.942Z,3.3883
2023-05-09T01:08:19.894Z,3.7953
2023-05-09T01:09:23.138Z,2.8621
2023-05-09T01:10:26.127Z,3.2202
2023-05-09T01:11:29.134Z,3.0455
2023-05-09T01:12:32.114Z,1.4367
2023-05-09T01:13:35.138Z,3.9075
2023-05-09T01:14:38.142Z,2.5853
2023-05-09T01:15:41.200Z,2.3561
2023-05-09T01:16:44.151Z,2.5838
2023-05-09T01:17:47.161Z,0.8625
2023-05-09T01:18:50.109Z,0.5747
2023-05-09T01:19:53.079Z,1.3224
2023-05-09T01:20:56.064Z,1.9546
2023-05-09T01:21:59.088Z,1.3219
2023-05-09T01:23:02.017Z,0.6897
2023-05-09T01:24:05.005Z,0.2300
2023-05-09T01:25:08.227Z,0.0573
2023-05-09T01:26:11.203Z,0.0000
2023-05-09T01:27:14.229Z,0.0000
2023-05-09T01:28:17.189Z,0.0000
2023-05-09T01:29:20.427Z,0.0000
2023-05-09T01:30:23.449Z,0.0000
2023-05-09T01:31:26.506Z,0.0000
2023-05-09T01:32:29.514Z,0.0000
2023-05-09T01:33:32.459Z,0.0000
2023-05-09T01:34:35.461Z,0.0000
2023-05-09T01:35:38.428Z,0.0000
2023-05-09T01:36:41.388Z,0.0000
2023-05-09T01:37:44.405Z,0.0000
2023-05-09T01:38:47.341Z,0.0000
2023-05-09T01:39:50.348Z,0.0000
2023-05-09T01:40:53.362Z,0.0000
2023-05-09T01:41:56.899Z,0.0000
2023-05-09T01:42:59.889Z,0.0000
2023-05-09T01:44:02.910Z,0.0000
2023-05-09T01:45:06.220Z,0.0000
2023-05-09T01:46:09.218Z,0.0000
2023-05-09T01:47:12.415Z,0.0000
2023-05-09T01:48:15.416Z,0.0000
2023-05-09T01:49:19.167Z,0.0000
2023-05-09T01:50:22.141Z,0.0000
2023-05-09T01:51:25.109Z,0.0000
2023-05-09T01:52:28.098Z,0.0000
2023-05-09T01:53:31.120Z,0.0000
2023-05-09T01:54:34.073Z,0.0000
2023-05-09T01:55:37.061Z,0.0000
2023-05-09T01:56:40.043Z,0.0000
2023-05-09T01:57:43.052Z,0.0000
2023-05-09T01:58:46.005Z,0.0000
2023-05-09T01:59:49.230Z,0.0000
2023-05-09T02:00:52.249Z,0.0000
2023-05-09T02:01:55.886Z,0.0000
2023-05-09T02:02:58.920Z,0.0000
2023-05-09T02:04:01.919Z,0.0000
2023-05-09T02:05:04.924Z,0.0000
2023-05-09T02:06:07.648Z,0.0000
2023-05-09T02:07:10.845Z,0.0000
2023-05-09T02:08:13.826Z,0.0000
2023-05-09T02:09:16.850Z,0.0000
2023-05-09T02:11:20.065Z,0.0000
2023-05-09T02:12:23.048Z,0.0000
2023-05-09T02:13:26.078Z,0.0000
2023-05-09T02:14:29.124Z,0.0000
2023-05-09T02:15:32.113Z,0.0000
2023-05-09T02:16:35.156Z,0.0000
2023-05-09T02:17:38.159Z,0.0000
2023-05-09T02:18:41.100Z,0.0000
2023-05-09T02:19:42.415Z,0.0000
2023-05-09T02:20:45.483Z,0.0000
2023-05-09T02:21:48.424Z,0.0000
2023-05-09T02:22:51.662Z,0.0000
2023-05-09T02:23:54.638Z,0.0000
2023-05-09T02:24:57.983Z,0.0000
2023-05-09T02:26:00.931Z,0.0000
2023-05-09T02:27:04.292Z,0.0000
2023-05-09T02:28:07.297Z,0.0000
2023-05-09T02:29:10.300Z,0.0000
2023-05-09T02:30:13.496Z,0.0000
2023-05-09T02:31:16.508Z,0.0000
2023-05-09T02:32:19.752Z,0.0000
2023-05-09T02:33:22.724Z,1.7248
2023-05-09T02:34:25.693Z,1.1495
2023-05-09T02:35:28.694Z,0.0575
2023-05-09T02:36:31.684Z,0.8046
2023-05-09T02:37:34.938Z,1.3737
2023-05-09T02:38:37.925Z,0.1724
2023-05-09T02:39:41.028Z,0.0000
2023-05-09T02:40:44.061Z,0.0000
2023-05-09T02:41:47.013Z,0.0000
2023-05-09T02:42:49.997Z,0.0000
2023-05-09T02:43:53.023Z,0.0000
2023-05-09T02:44:55.940Z,0.0000
2023-05-09T02:45:58.992Z,0.0000
2023-05-09T02:47:01.919Z,0.0000
2023-05-09T02:48:07.640Z,0.0000
2023-05-09T02:49:07.874Z,0.0000
2023-05-09T02:50:11.201Z,0.0000
2023-05-09T02:51:14.206Z,0.0000
2023-05-09T02:52:17.193Z,0.0000
2023-05-09T02:53:20.156Z,0.0000
2023-05-09T02:54:23.135Z,0.2299
2023-05-09T02:55:26.152Z,0.6321
2023-05-09T02:56:29.168Z,0.6323
2023-05-09T02:57:32.124Z,0.3449
2023-05-09T02:58:35.102Z,1.0342
2023-05-09T02:59:38.061Z,0.1725
2023-05-09T03:00:41.067Z,0.2874
2023-05-09T03:01:44.107Z,1.1490
2023-05-09T03:02:47.164Z,0.6892
2023-05-09T03:03:50.180Z,0.3444
2023-05-09T03:04:53.127Z,0.1150
2023-05-09T03:05:56.105Z,0.0000
2023-05-09T03:06:59.112Z,0.0000
2023-05-09T03:08:02.097Z,0.0000
2023-05-09T03:09:05.111Z,0.0000
2023-05-09T03:10:08.075Z,0.6321
2023-05-09T03:11:11.069Z,0.8049
2023-05-09T03:12:14.094Z,0.0000
2023-05-09T03:13:17.104Z,0.0000
2023-05-09T03:14:20.082Z,0.0000
2023-05-09T03:15:23.082Z,0.0000
2023-05-09T03:16:26.055Z,0.0000
2023-05-09T03:17:26.635Z,0.0000
2023-05-09T03:18:29.613Z,0.0000
2023-05-09T03:19:32.617Z,0.0000
2023-05-09T03:20:35.958Z,0.0000
2023-05-09T03:21:38.934Z,0.0000
2023-05-09T03:22:41.915Z,0.0000
2023-05-09T03:23:44.942Z,0.0000
2023-05-09T03:24:48.002Z,0.0000
2023-05-09T03:25:51.318Z,0.0000
2023-05-09T03:26:54.315Z,0.0000
2023-05-09T03:27:57.375Z,0.0000
2023-05-09T03:29:00.318Z,0.0000
2023-05-09T03:30:03.341Z,0.0000
2023-05-09T03:31:06.462Z,0.0000
2023-05-09T03:32:09.481Z,0.0000
2023-05-09T03:33:13.004Z,0.0000
2023-05-09T03:34:16.006Z,0.0000
2023-05-09T03:35:19.000Z,0.0000
2023-05-09T03:36:21.974Z,0.0000
2023-05-09T03:37:26.901Z,0.0000
2023-05-09T03:38:26.778Z,0.0000
2023-05-09T03:39:29.770Z,0.0000
2023-05-09T03:40:32.986Z,0.0000
2023-05-09T03:41:35.983Z,0.0000
2023-05-09T03:42:39.213Z,0.0000
2023-05-09T03:43:42.274Z,0.0000
2023-05-09T03:44:45.245Z,0.0000
2023-05-09T03:45:48.292Z,0.0000
2023-05-09T03:46:51.357Z,0.0000
2023-05-09T03:47:54.087Z,0.0000
2023-05-09T03:48:57.094Z,0.0000
2023-05-09T03:50:00.114Z,0.0000
2023-05-09T03:51:03.112Z,0.0000
2023-05-09T03:52:06.154Z,0.0000
2023-05-09T03:53:09.175Z,0.0000
2023-05-09T03:54:12.191Z,0.0000
2023-05-09T03:55:15.348Z,0.0000
2023-05-09T03:56:18.759Z,0.0000
2023-05-09T03:57:21.778Z,0.0000
2023-05-09T03:58:24.794Z,0.0000
2023-05-09T03:59:27.845Z,0.0000
2023-05-09T04:00:30.804Z,0.0000
2023-05-09T04:01:33.827Z,0.0000
2023-05-09T04:02:36.915Z,0.0000
2023-05-09T04:03:40.169Z,0.0000
2023-05-09T04:04:43.170Z,1.2031
2023-05-09T04:05:46.181Z,1.4936
2023-05-09T04:06:49.194Z,0.1723
2023-05-09T04:07:52.206Z,0.0000
2023-05-09T04:08:55.205Z,0.0000
2023-05-09T04:09:58.214Z,0.0000
2023-05-09T04:11:01.474Z,0.0000
2023-05-09T04:12:04.499Z,0.0000
2023-05-09T04:13:07.592Z,0.0000
2023-05-09T04:14:10.567Z,0.0000
2023-05-09T04:15:13.954Z,0.0000
2023-05-09T04:16:17.066Z,0.0000
2023-05-09T04:17:20.046Z,0.0000
2023-05-09T04:18:23.062Z,0.0000
2023-05-09T04:19:26.114Z,0.0000
2023-05-09T04:20:29.122Z,0.0000
2023-05-09T04:21:32.152Z,0.0000
2023-05-09T04:22:35.174Z,0.0000
2023-05-09T04:23:36.161Z,0.0000
2023-05-09T04:24:39.160Z,0.0000
2023-05-09T04:25:42.420Z,0.0000
2023-05-09T04:26:45.458Z,0.0000
2023-05-09T04:27:48.466Z,0.0000
2023-05-09T04:28:51.499Z,0.0000
2023-05-09T04:29:54.494Z,0.0000
2023-05-09T04:30:57.740Z,0.0000
2023-05-09T04:32:00.845Z,0.0000
2023-05-09T04:33:03.870Z,0.0000
2023-05-09T04:34:06.886Z,0.0000
2023-05-09T04:35:09.888Z,0.0000
2023-05-09T04:36:12.930Z,0.0000
2023-05-09T04:37:15.951Z,1.2634
2023-05-09T04:38:18.976Z,0.4022
2023-05-09T04:39:21.963Z,1.2066
2023-05-09T04:40:26.857Z,1.3789
2023-05-09T04:41:26.505Z,2.6481
2023-05-09T04:42:29.540Z,2.4124
2023-05-09T04:43:32.607Z,2.8719
2023-05-09T04:44:35.606Z,2.6981
2023-05-09T04:45:36.748Z,1.5994
2023-05-09T04:46:39.855Z,2.0679
2023-05-09T04:47:42.874Z,2.1804
2023-05-09T04:48:45.879Z,2.2972
2023-05-09T04:49:48.884Z,1.2639
2023-05-09T04:50:51.955Z,1.6085
2023-05-09T04:51:54.982Z,1.6656
2023-05-09T04:52:58.035Z,2.2389
2023-05-09T04:54:01.092Z,0.5169
2023-05-09T04:55:04.106Z,1.3206
2023-05-09T04:56:07.150Z,2.7567
2023-05-09T04:57:17.244Z,1.8385
2023-05-09T04:58:11.701Z,2.4712
2023-05-09T04:59:14.734Z,1.4930
2023-05-09T05:00:17.760Z,0.2872
2023-05-09T05:01:20.781Z,1.8956
2023-05-09T05:02:23.825Z,1.0916
2023-05-09T05:03:26.871Z,2.4682
2023-05-09T05:04:29.893Z,3.0443
2023-05-09T05:06:35.988Z,0.9760
2023-05-09T05:07:39.028Z,0.2871
2023-05-09T05:08:42.066Z,1.3199
2023-05-09T05:09:45.079Z,2.0684
2023-05-09T05:10:48.119Z,2.3553
2023-05-09T05:12:00.829Z,1.7807
2023-05-09T05:12:52.726Z,1.1178
2023-05-09T05:13:55.749Z,1.8944
2023-05-09T05:14:58.796Z,0.9760
2023-05-09T05:16:01.849Z,1.8379
2023-05-09T05:17:04.859Z,1.3785
2023-05-09T05:18:08.029Z,0.7466
2023-05-09T05:19:11.021Z,0.6308
2023-05-09T05:20:14.027Z,2.0677
2023-05-09T05:21:17.158Z,0.9766
2023-05-09T05:22:20.118Z,0.2296
2023-05-09T05:23:23.134Z,0.2873
2023-05-09T05:24:26.141Z,0.0575
2023-05-09T05:25:29.163Z,0.4021
2023-05-09T05:26:32.405Z,0.0573
2023-05-09T05:27:35.450Z,0.0000
2023-05-09T05:28:38.477Z,0.0574
2023-05-09T05:29:41.491Z,1.3783
2023-05-09T05:30:44.512Z,0.5745
2023-05-09T05:31:47.599Z,0.1724
2023-05-09T05:33:51.137Z,0.1148
2023-05-09T05:34:54.080Z,1.2062
2023-05-09T05:35:57.122Z,0.9767
2023-05-09T05:37:00.139Z,0.6318
2023-05-09T05:38:03.186Z,1.0916
2023-05-09T05:39:06.207Z,0.6318
2023-05-09T05:40:09.208Z,1.2060
2023-05-09T05:41:12.257Z,1.6082
2023-05-09T05:42:15.278Z,2.5851
2023-05-09T05:43:18.301Z,1.3786
2023-05-09T05:44:21.300Z,0.8043
2023-05-09T05:45:24.322Z,0.4597
2023-05-09T05:46:27.804Z,0.0000
2023-05-09T05:47:30.848Z,0.2873
2023-05-09T05:48:34.459Z,1.1378
2023-05-09T05:49:37.503Z,1.8384
2023-05-09T05:50:48.128Z,1.0915
2023-05-09T05:51:43.792Z,2.0583
2023-05-09T05:52:46.822Z,0.6319
2023-05-09T05:53:50.099Z,2.4606
2023-05-09T05:54:53.162Z,3.8481
2023-05-09T05:55:56.402Z,2.5740
2023-05-09T05:56:59.451Z,2.9884
2023-05-09T05:58:02.433Z,2.2400
2023-05-09T05:59:05.444Z,2.1255
2023-05-09T06:00:08.628Z,0.9166
2023-05-09T06:01:12.469Z,0.9727
2023-05-09T06:02:15.615Z,1.3093
2023-05-09T06:03:18.754Z,1.5471
2023-05-09T06:04:21.980Z,0.1148
2023-05-09T06:05:25.164Z,0.0000
2023-05-09T06:06:28.430Z,0.0000
2023-05-09T06:07:31.417Z,0.0000
2023-05-09T06:08:34.539Z,0.0000
2023-05-09T06:09:37.574Z,0.0000
2023-05-09T06:10:40.639Z,0.0000
2023-05-09T06:11:43.713Z,0.4591
2023-05-09T06:12:46.770Z,1.7226
2023-05-09T06:13:49.981Z,2.4029
2023-05-09T06:14:53.048Z,2.7576
2023-05-09T06:15:57.741Z,1.5508
2023-05-09T06:16:57.661Z,0.2351
2023-05-09T06:18:00.710Z,1.6082
2023-05-09T06:19:03.756Z,3.5600
2023-05-09T06:20:06.758Z,2.2408
2023-05-09T06:21:09.890Z,4.7603
2023-05-09T06:22:12.879Z,5.0550
2023-05-09T06:23:15.904Z,5.5733
2023-05-09T06:24:31.867Z,4.9387
2023-05-09T06:25:20.501Z,4.4713
2023-05-09T06:26:23.518Z,4.4215
2023-05-09T06:27:26.559Z,3.3313
2023-05-09T06:28:29.551Z,5.1704
2023-05-09T06:29:31.901Z,5.1681
2023-05-09T06:30:34.913Z,4.8839
2023-05-09T06:31:37.944Z,4.1938
2023-05-09T06:32:41.045Z,2.7562
2023-05-09T06:33:44.041Z,2.5252
2023-05-09T06:34:47.055Z,0.4022
2023-05-09T06:35:50.070Z,0.0575
2023-05-09T06:36:53.153Z,2.4696
2023-05-09T06:37:56.152Z,1.0912
2023-05-09T06:38:59.213Z,0.0000
2023-05-09T06:40:02.246Z,1.5508
2023-05-09T06:41:05.455Z,0.8037
2023-05-09T06:42:08.457Z,1.4332
2023-05-09T06:43:11.526Z,0.1148
2023-05-09T06:44:14.573Z,0.6314
2023-05-09T06:45:17.853Z,1.3211
2023-05-09T06:46:21.183Z,1.1971
2023-05-09T06:47:24.379Z,0.3436
2023-05-09T06:48:27.368Z,0.2871
2023-05-09T06:49:30.392Z,1.6082
2023-05-09T06:50:33.388Z,1.6664
2023-05-09T06:51:36.267Z,1.2094
2023-05-09T06:52:39.327Z,2.6425
2023-05-09T06:53:42.325Z,2.0681
2023-05-09T06:54:45.360Z,0.1149
2023-05-09T06:55:48.390Z,2.2968
2023-05-09T06:56:51.416Z,2.4701
2023-05-09T06:57:54.443Z,0.9190
2023-05-09T06:58:57.457Z,3.3889
2023-05-09T07:00:00.480Z,1.6663
2023-05-09T07:01:03.493Z,0.6891
2023-05-09T07:02:06.595Z,0.8617
2023-05-09T07:03:09.625Z,0.2297
2023-05-09T07:04:12.628Z,1.4927
2023-05-09T07:05:15.849Z,1.3216
2023-05-09T07:06:19.097Z,1.0272
2023-05-09T07:07:22.141Z,0.6315
2023-05-09T07:08:25.181Z,1.2639
2023-05-09T07:09:28.148Z,0.0000
2023-05-09T07:10:31.180Z,0.1149
2023-05-09T07:11:34.187Z,0.2872
2023-05-09T07:13:39.554Z,2.4707
2023-05-09T07:14:42.572Z,1.3724
2023-05-09T07:15:45.722Z,0.6893
2023-05-09T07:16:48.775Z,1.4338
2023-05-09T07:17:51.786Z,1.7800
2023-05-09T07:18:54.769Z,2.3551
2023-05-09T07:19:57.810Z,1.7237
2023-05-09T07:21:00.827Z,3.6187
2023-05-09T07:22:04.141Z,3.1591
2023-05-09T07:23:07.153Z,1.0868
2023-05-09T07:24:10.256Z,2.0096
2023-05-09T07:25:13.510Z,0.5743
2023-05-09T07:26:16.617Z,1.4281
2023-05-09T07:27:19.657Z,2.2973
2023-05-09T07:28:22.691Z,2.9865
2023-05-09T07:29:25.766Z,2.9858
2023-05-09T07:30:28.750Z,2.0675
2023-05-09T07:31:31.771Z,2.5280
2023-05-09T07:32:34.772Z,2.8736
2023-05-09T07:33:37.789Z,1.4938
2023-05-09T07:34:40.786Z,0.0574
2023-05-09T07:35:43.985Z,0.2865
2023-05-09T07:36:47.000Z,0.9191
2023-05-09T07:37:50.200Z,0.1719
2023-05-09T07:38:53.278Z,1.1484
2023-05-09T07:39:56.058Z,3.1147
2023-05-09T07:40:59.242Z,2.4635
2023-05-09T07:42:02.258Z,3.0430
2023-05-09T07:43:05.313Z,2.0099
2023-05-09T07:44:08.315Z,3.1583
2023-05-09T07:45:11.392Z,2.9299
2023-05-09T07:46:14.715Z,1.4875
2023-05-09T07:47:17.733Z,1.7790
2023-05-09T07:48:20.774Z,2.2970
2023-05-09T07:49:23.797Z,1.9522
2023-05-09T07:50:26.471Z,1.7903
2023-05-09T07:51:29.491Z,1.7811
2023-05-09T07:52:32.564Z,1.6084
2023-05-09T07:53:35.543Z,0.9188
2023-05-09T07:54:38.560Z,1.0917
2023-05-09T07:55:41.648Z,2.1261
2023-05-09T07:56:44.629Z,1.1482
2023-05-09T07:57:47.661Z,2.6423
2023-05-09T07:58:50.717Z,2.6987
2023-05-09T07:59:53.743Z,0.5170
2023-05-09T08:00:56.785Z,0.0574
2023-05-09T08:01:59.842Z,0.0574
2023-05-09T08:03:03.016Z,0.9763
2023-05-09T08:04:06.531Z,0.3418
2023-05-09T08:05:09.570Z,0.4584
2023-05-09T08:06:12.568Z,0.0574
2023-05-09T08:07:15.591Z,0.2873
2023-05-09T08:08:18.597Z,0.0000
2023-05-09T08:09:21.846Z,0.8587
2023-05-09T08:10:24.885Z,1.8956
2023-05-09T08:11:27.927Z,1.3214
2023-05-09T08:12:30.888Z,1.6086
2023-05-09T08:13:33.934Z,0.3448
2023-05-09T08:14:37.003Z,1.2052
2023-05-09T08:15:39.747Z,2.3081
2023-05-09T08:16:42.738Z,3.6200
2023-05-09T08:17:45.853Z,3.3313
2023-05-09T08:18:48.866Z,0.2295
2023-05-09T08:19:51.883Z,1.1492
2023-05-09T08:20:54.894Z,1.4361
2023-05-09T08:21:57.949Z,3.3892
2023-05-09T08:23:00.985Z,1.4357
2023-05-09T08:24:03.985Z,1.4363
2023-05-09T08:25:07.023Z,1.7226
2023-05-09T08:26:10.036Z,1.9531
2023-05-09T08:27:10.307Z,1.5025
2023-05-09T08:28:13.291Z,1.2640
2023-05-09T08:29:16.311Z,3.5622
2023-05-09T08:30:19.331Z,2.2394
2023-05-09T08:31:22.379Z,2.5856
2023-05-09T08:32:25.424Z,0.8038
2023-05-09T08:33:28.456Z,1.6655
2023-05-09T08:34:29.619Z,3.0198
2023-05-09T08:35:32.602Z,2.1255
2023-05-09T08:37:35.764Z,2.6986
2023-05-09T08:38:38.999Z,2.7471
2023-05-09T08:39:42.025Z,1.2633
2023-05-09T08:40:45.127Z,1.7228
2023-05-09T08:41:48.236Z,0.1146
2023-05-09T08:42:51.451Z,0.9740
2023-05-09T08:43:54.441Z,0.3446
2023-05-09T08:44:57.477Z,1.2063
2023-05-09T08:46:00.676Z,2.2396
2023-05-09T08:47:03.806Z,2.5756
2023-05-09T08:48:07.111Z,1.4309
2023-05-09T08:49:10.512Z,3.3083
2023-05-09T08:50:13.733Z,3.1587
2023-05-09T08:51:17.098Z,3.4726
2023-05-09T08:52:20.121Z,6.1467
2023-05-09T08:53:23.222Z,4.3068
2023-05-09T08:54:26.224Z,4.0768
2023-05-09T08:55:29.259Z,2.6994
2023-05-09T08:56:32.307Z,2.2388
2023-05-09T08:57:35.318Z,3.9062
2023-05-09T08:58:38.370Z,3.3333
2023-05-09T08:59:41.377Z,2.9857
2023-05-09T09:00:44.425Z,2.4118
2023-05-09T09:01:47.523Z,1.2630
2023-05-09T09:02:50.553Z,3.2727
2023-05-09T09:03:53.589Z,4.0170
2023-05-09T09:04:56.705Z,2.8152
2023-05-09T09:05:59.788Z,2.6376
2023-05-09T09:07:02.824Z,2.8129
2023-05-09T09:08:05.853Z,2.3556
2023-05-09T09:09:08.892Z,1.6077
2023-05-09T09:10:11.959Z,0.0575
2023-05-09T09:11:14.951Z,0.5741
2023-05-09T09:12:17.952Z,2.9878
2023-05-09T09:13:21.003Z,3.1593
2023-05-09T09:14:24.077Z,4.9388
2023-05-09T09:15:27.072Z,2.9280
2023-05-09T09:16:30.153Z,2.5278
2023-05-09T09:17:33.232Z,2.0079
2023-05-09T09:18:36.288Z,3.6755
2023-05-09T09:19:39.326Z,3.7305
2023-05-09T09:20:42.394Z,4.5349
2023-05-09T09:21:45.403Z,2.4125
2023-05-09T09:22:48.523Z,1.6655
2023-05-09T09:23:51.533Z,1.6638
2023-05-09T09:24:54.620Z,0.0574
2023-05-09T09:25:59.607Z,0.2870
2023-05-09T09:27:59.449Z,0.2350
2023-05-09T09:29:02.448Z,1.6648
2023-05-09T09:30:05.526Z,1.3214
2023-05-09T09:31:08.514Z,5.1113
2023-05-09T09:32:11.570Z,2.1825
2023-05-09T09:33:14.724Z,2.5248
2023-05-09T09:34:17.698Z,3.2139
2023-05-09T09:35:20.713Z,1.6664
2023-05-09T09:36:23.740Z,1.8383
2023-05-09T09:37:24.005Z,5.1664
2023-05-09T09:38:30.879Z,3.1388
2023-05-09T09:39:34.015Z,1.6633
2023-05-09T09:40:37.016Z,4.8829
2023-05-09T09:41:40.206Z,4.7575
2023-05-09T09:42:43.238Z,1.8951
2023-05-09T09:43:46.257Z,0.4019
2023-05-09T09:44:49.265Z,0.0000
2023-05-09T09:45:52.431Z,0.0000
2023-05-09T09:46:55.490Z,0.5163
2023-05-09T09:47:58.601Z,1.3201
2023-05-09T09:49:01.865Z,2.2861
2023-05-09T09:50:04.935Z,0.3445
2023-05-09T09:51:08.135Z,0.4021
2023-05-09T09:52:11.182Z,1.8895
2023-05-09T09:53:14.194Z,1.4931
2023-05-09T09:54:18.326Z,1.4303
2023-05-09T09:55:17.669Z,1.6247
2023-05-09T09:56:20.621Z,1.7234
2023-05-09T09:57:23.662Z,2.9877
2023-05-09T09:58:26.694Z,1.5508
2023-05-09T09:59:29.981Z,1.5445
2023-05-09T10:00:32.989Z,1.8958
2023-05-09T10:01:36.116Z,3.5034
2023-05-09T10:02:39.393Z,2.4012
2023-05-09T10:03:42.443Z,2.4690
2023-05-09T10:04:43.573Z,2.8986
2023-05-09T10:05:46.585Z,1.4940
2023-05-09T10:06:49.610Z,4.3646
2023-05-09T10:07:52.674Z,2.8722
2023-05-09T10:08:55.678Z,4.1920
2023-05-09T10:09:57.141Z,2.9450
2023-05-09T10:11:00.159Z,0.8045
2023-05-09T10:12:03.627Z,2.5136
2023-05-09T10:13:06.693Z,2.0072
2023-05-09T10:14:09.748Z,2.0676
2023-05-09T10:15:12.749Z,1.5503
2023-05-09T10:16:35.646Z,2.3545
2023-05-09T10:18:25.759Z,1.5183
2023-05-09T10:19:28.838Z,1.7174
2023-05-09T10:20:31.906Z,2.5837
2023-05-09T10:21:36.160Z,3.3304
2023-05-09T10:22:36.343Z,2.1817
2023-05-09T10:23:39.065Z,2.9419
2023-05-09T10:24:42.116Z,2.8708
2023-05-09T10:25:45.166Z,1.9522
2023-05-09T10:26:48.519Z,0.5146
2023-05-09T10:27:51.603Z,2.3529
2023-05-09T10:28:54.632Z,2.4105
2023-05-09T10:29:57.933Z,3.1467
2023-05-09T10:31:01.019Z,3.0428
2023-05-09T10:32:04.056Z,1.7217
2023-05-09T10:33:07.159Z,1.1486
2023-05-09T10:34:10.421Z,5.6058
2023-05-09T10:35:13.657Z,4.5347
2023-05-09T10:36:16.869Z,6.5665
2023-05-09T10:37:20.350Z,4.7336
2023-05-09T10:38:23.414Z,8.0935
2023-05-09T10:39:26.728Z,8.1190
2023-05-09T10:40:29.782Z,2.8705
2023-05-09T10:41:32.832Z,2.2959
2023-05-09T10:42:36.129Z,5.7788
2023-05-09T10:43:38.913Z,4.4964
2023-05-09T10:44:41.959Z,1.8948
2023-05-09T10:45:45.031Z,4.7085
2023-05-09T10:46:48.161Z,3.0996
2023-05-09T10:47:51.336Z,3.3833
2023-05-09T10:48:54.439Z,3.1512
2023-05-09T10:50:02.618Z,3.0275
2023-05-09T10:51:05.613Z,2.4683
2023-05-09T10:52:08.695Z,2.3548
2023-05-09T10:53:11.765Z,1.7791
2023-05-09T10:54:14.820Z,0.4018
2023-05-09T10:55:17.908Z,1.4352
2023-05-09T10:56:20.987Z,0.6313
2023-05-09T10:57:24.330Z,0.4571
2023-05-09T10:58:27.404Z,2.4682
2023-05-09T10:59:30.464Z,3.7315
2023-05-09T11:00:33.538Z,1.6646
2023-05-09T11:02:38.292Z,6.2557
2023-05-09T11:03:41.626Z,5.5088
2023-05-09T11:04:44.774Z,7.5388
2023-05-09T11:05:47.838Z,4.1347
2023-05-09T11:06:50.918Z,3.9038
2023-05-09T11:07:54.108Z,4.0069
2023-05-09T11:08:57.192Z,3.2138
2023-05-09T11:10:00.282Z,3.5589
2023-05-09T11:11:03.368Z,2.9272
2023-05-09T11:13:09.179Z,2.0585
2023-05-09T11:14:12.221Z,3.8176
2023-05-09T11:15:15.446Z,0.9183
2023-05-09T11:16:18.667Z,0.2286
2023-05-09T11:17:22.072Z,1.7157
2023-05-09T11:18:25.242Z,0.7433
2023-05-09T11:19:28.290Z,0.6890
2023-05-09T11:20:31.394Z,1.3780
2023-05-09T11:21:34.654Z,2.8044
2023-05-09T11:22:37.726Z,1.4350
2023-05-09T11:23:40.805Z,5.2221
2023-05-09T11:24:43.864Z,4.1889
2023-05-09T11:25:46.959Z,4.8215
2023-05-09T11:26:49.984Z,2.0092
2023-05-09T11:27:53.100Z,4.8206
2023-05-09T11:28:56.317Z,4.8073
2023-05-09T11:29:59.370Z,3.9044
2023-05-09T11:31:02.448Z,4.3073
2023-05-09T11:32:05.507Z,3.8450
2023-05-09T11:33:09.144Z,2.9771
2023-05-09T11:34:12.405Z,3.9233
2023-05-09T11:35:15.984Z,3.9601
2023-05-09T11:36:15.625Z,3.9732
2023-05-09T11:37:18.701Z,5.2248
2023-05-09T11:38:29.278Z,1.6924
2023-05-09T11:39:32.368Z,1.7216
2023-05-09T11:40:35.461Z,5.9674
2023-05-09T11:41:38.578Z,3.5003
2023-05-09T11:42:41.594Z,4.5348
2023-05-09T11:43:44.676Z,3.7318
2023-05-09T11:44:47.950Z,3.0881
2023-05-09T11:45:51.062Z,4.1347
2023-05-09T11:46:54.167Z,6.9950
2023-05-09T11:47:57.298Z,3.0421
2023-05-09T11:49:07.784Z,2.0637
2023-05-09T11:50:04.069Z,4.7194
2023-05-09T11:51:07.092Z,5.8539
2023-05-09T11:52:10.237Z,5.1102
2023-05-09T11:53:13.420Z,3.8422
2023-05-09T11:54:16.451Z,1.3182
2023-05-09T11:55:19.748Z,3.3301
2023-05-09T11:56:22.846Z,1.5436
2023-05-09T11:57:25.890Z,0.3444
2023-05-09T11:58:28.999Z,1.3210
2023-05-09T11:59:32.083Z,1.2614
2023-05-09T12:00:35.146Z,0.4592
2023-05-09T12:01:38.216Z,0.9185
2023-05-09T12:02:41.396Z,0.4018
2023-05-09T12:03:44.534Z,2.4641
2023-05-09T12:04:47.648Z,3.9518
2023-05-09T12:05:50.938Z,4.1249
2023-05-09T12:06:54.021Z,2.9230
2023-05-09T12:07:57.090Z,3.6735
2023-05-09T12:09:00.181Z,3.7319
2023-05-09T12:10:03.213Z,1.2632
2023-05-09T12:11:06.278Z,2.1235
2023-05-09T12:12:07.502Z,2.6608
2023-05-09T12:13:10.628Z,2.6981
2023-05-09T12:14:13.752Z,1.8908
2023-05-09T12:15:17.112Z,2.1813
2023-05-09T12:16:17.032Z,0.9628
2023-05-09T12:17:19.854Z,0.1152
2023-05-09T12:18:23.273Z,0.9729
2023-05-09T12:19:26.344Z,3.2634
2023-05-09T12:20:29.388Z,3.2721
2023-05-09T12:21:32.446Z,3.7316
2023-05-09T12:22:35.638Z,2.0626
2023-05-09T12:23:38.699Z,1.6071
2023-05-09T12:24:41.805Z,6.1997
2023-05-09T12:25:44.953Z,3.7315
2023-05-09T12:26:48.000Z,3.0372
2023-05-09T12:27:51.089Z,3.5576
2023-05-09T12:28:54.140Z,3.0439
2023-05-09T12:29:57.202Z,0.9183
2023-05-09T12:31:00.279Z,2.9275
2023-05-09T12:33:03.997Z,3.2170
2023-05-09T12:34:07.049Z,2.2945
2023-05-09T12:35:10.127Z,2.6404
2023-05-09T12:36:13.207Z,3.2148
2023-05-09T12:37:14.392Z,4.6713
2023-05-09T12:38:17.665Z,1.7792
2023-05-09T12:39:20.704Z,5.1521
2023-05-09T12:40:23.811Z,4.8227
2023-05-09T12:41:36.907Z,5.0521
2023-05-09T12:42:28.424Z,4.0559
2023-05-09T12:43:31.488Z,4.0182
2023-05-09T12:44:34.576Z,3.2715
2023-05-09T12:45:37.665Z,2.7549
2023-05-09T12:46:40.762Z,3.6736
2023-05-09T12:47:43.826Z,2.1800
2023-05-09T12:48:46.867Z,0.5166
2023-05-09T12:49:49.947Z,2.5837
2023-05-09T12:50:52.719Z,4.3255
2023-05-09T12:51:55.760Z,1.4348
2023-05-09T12:53:03.250Z,3.8473
2023-05-09T12:54:00.381Z,4.4116
2023-05-09T12:55:03.452Z,3.7887
2023-05-09T12:56:06.587Z,3.9613
2023-05-09T12:57:09.614Z,4.0157
2023-05-09T12:58:09.649Z,2.1707
2023-05-09T12:59:12.731Z,3.0420
2023-05-09T13:00:15.899Z,2.0077
2023-05-09T13:01:18.951Z,5.9115
2023-05-09T13:02:22.123Z,4.5840
2023-05-09T13:03:25.478Z,6.4822
2023-05-09T13:04:28.693Z,2.6825
2023-05-09T13:05:29.936Z,3.7791
2023-05-09T13:06:33.029Z,2.4687
2023-05-09T13:07:35.805Z,1.6135
2023-05-09T13:08:41.928Z,2.4123
2023-05-09T13:09:41.362Z,2.6657
2023-05-09T13:10:57.815Z,3.0734
2023-05-09T13:11:53.608Z,2.5875
2023-05-09T13:12:56.640Z,0.6312
2023-05-09T13:15:01.666Z,2.4698
2023-05-09T13:16:04.708Z,2.9834
2023-05-09T13:17:07.777Z,1.5507